createdAt,value
2022-09-29T00:02:37.623Z,99868.31
2022-09-29T00:07:38.978Z,99872.44
2022-09-29T00:12:40.670Z,99872.09
2022-09-29T00:17:49.696Z,99874.94
2022-09-29T00:22:59.394Z,99866.28
2022-09-29T00:28:00.826Z,99864.16
2022-09-29T00:33:02.180Z,99865.06
2022-09-29T00:38:03.509Z,99867.53
2022-09-29T00:43:05.763Z,99865.50
2022-09-29T00:48:10.956Z,99864.63
2022-09-29T00:53:16.688Z,99862.97
2022-09-29T00:58:20.676Z,99874.03
2022-09-29T01:03:23.902Z,99868.75
2022-09-29T01:08:28.292Z,99865.03
2022-09-29T01:13:30.248Z,99862.56
2022-09-29T01:18:32.186Z,99867.53
2022-09-29T01:23:51.222Z,99869.03
2022-09-29T01:28:55.230Z,99871.91
2022-09-29T01:34:11.807Z,99866.44
2022-09-29T01:39:27.387Z,99866.44
2022-09-29T01:44:28.647Z,99866.25
2022-09-29T01:49:31.794Z,99861.13
2022-09-29T01:54:42.660Z,99862.19
2022-09-29T01:59:46.875Z,99868.72
2022-09-29T02:04:54.070Z,99870.47
2022-09-29T02:10:00.724Z,99872.91
2022-09-29T02:15:03.068Z,99868.16
2022-09-29T02:20:04.924Z,99868.34
2022-09-29T02:25:08.958Z,99868.13
2022-09-29T02:30:10.952Z,99866.63
2022-09-29T02:35:13.264Z,99877.56
2022-09-29T02:40:27.398Z,99871.63
2022-09-29T02:45:48.992Z,99880.03
2022-09-29T02:51:06.229Z,99872.13
2022-09-29T02:56:13.435Z,99867.00
2022-09-29T03:01:16.610Z,99873.94
2022-09-29T03:06:19.183Z,99876.84
2022-09-29T03:11:20.509Z,99872.94
2022-09-29T03:16:21.846Z,99878.78
2022-09-29T03:21:23.747Z,99866.81
2022-09-29T03:26:25.436Z,99865.63
2022-09-29T03:31:26.953Z,99866.16
2022-09-29T03:36:28.337Z,99866.16
2022-09-29T03:41:29.814Z,99864.41
2022-09-29T03:46:31.173Z,99877.97
2022-09-29T03:51:32.657Z,99871.72
2022-09-29T03:56:34.387Z,99871.56
2022-09-29T04:01:38.103Z,99876.97
2022-09-29T04:06:39.501Z,99879.56
2022-09-29T04:11:40.987Z,99876.16
2022-09-29T04:16:42.425Z,99877.09
2022-09-29T04:21:43.817Z,99888.09
2022-09-29T04:26:45.202Z,99894.59
2022-09-29T04:31:46.564Z,99892.19
2022-09-29T04:36:47.853Z,99893.72
2022-09-29T04:41:49.193Z,99896.06
2022-09-29T04:46:51.111Z,99898.78
2022-09-29T04:51:52.409Z,99904.59
2022-09-29T04:56:53.860Z,99907.53
2022-09-29T05:01:55.200Z,99910.44
2022-09-29T05:06:56.554Z,99914.78
2022-09-29T05:11:58.033Z,99916.69
2022-09-29T05:16:59.411Z,99925.16
2022-09-29T05:22:00.931Z,99920.91
2022-09-29T05:27:02.390Z,99925.66
2022-09-29T05:32:03.748Z,99932.97
2022-09-29T05:37:05.528Z,99935.03
2022-09-29T05:42:10.153Z,99938.69
2022-09-29T05:47:11.727Z,99937.53
2022-09-29T05:52:13.160Z,99936.34
2022-09-29T05:57:14.457Z,99942.13
2022-09-29T06:02:17.194Z,99939.09
2022-09-29T06:07:18.737Z,99948.88
2022-09-29T06:12:21.900Z,99948.94
2022-09-29T06:17:23.306Z,99940.34
2022-09-29T06:22:25.008Z,99952.59
2022-09-29T06:27:28.867Z,99948.28
2022-09-29T06:32:30.242Z,99947.06
2022-09-29T06:37:39.543Z,99960.38
2022-09-29T06:42:42.232Z,99965.72
2022-09-29T06:47:43.827Z,99969.03
2022-09-29T06:52:57.828Z,99972.59
2022-09-29T06:58:04.292Z,99971.72
2022-09-29T07:03:05.852Z,99979.06
2022-09-29T07:08:07.246Z,99983.59
2022-09-29T07:13:09.419Z,99979.94
2022-09-29T07:18:10.788Z,99985.03
2022-09-29T07:23:12.206Z,99986.94
2022-09-29T07:28:13.633Z,99993.81
2022-09-29T07:33:15.043Z,99995.53
2022-09-29T07:38:16.414Z,99990.09
2022-09-29T07:43:20.074Z,99990.34
2022-09-29T07:48:21.649Z,99997.59
2022-09-29T07:53:22.948Z,99999.72
2022-09-29T07:58:24.327Z,100015.38
2022-09-29T08:03:26.349Z,100019.97
2022-09-29T08:08:27.683Z,100022.59
2022-09-29T08:13:30.416Z,100032.31
2022-09-29T08:18:32.377Z,100039.31
2022-09-29T08:23:39.373Z,100041.16
2022-09-29T08:28:41.156Z,100037.16
2022-09-29T08:33:42.545Z,100043.78
2022-09-29T08:38:45.230Z,100050.94
2022-09-29T08:43:48.331Z,100053.69
2022-09-29T08:48:58.076Z,100062.59
2022-09-29T08:54:04.367Z,100072.25
2022-09-29T08:59:05.712Z,100072.25
2022-09-29T09:04:29.297Z,100079.41
2022-09-29T09:09:36.881Z,100082.78
2022-09-29T09:14:46.907Z,100080.50
2022-09-29T09:19:57.381Z,100091.03
2022-09-29T09:25:13.531Z,100091.88
2022-09-29T09:30:19.226Z,100102.50
2022-09-29T09:35:26.701Z,100094.31
2022-09-29T09:40:32.102Z,100102.84
2022-09-29T09:45:38.035Z,100104.69
2022-09-29T09:50:43.052Z,100116.91
2022-09-29T09:55:48.854Z,100110.25
2022-09-29T10:01:02.073Z,100107.19
2022-09-29T10:06:06.818Z,100104.94
2022-09-29T10:11:20.110Z,100116.34
2022-09-29T10:16:26.082Z,100110.78
2022-09-29T10:21:41.517Z,100124.53
2022-09-29T10:26:43.647Z,100137.34
2022-09-29T10:31:57.455Z,100155.56
2022-09-29T10:37:00.973Z,100143.91
2022-09-29T10:42:05.736Z,100142.22
2022-09-29T10:47:11.979Z,100143.31
2022-09-29T10:52:22.242Z,100138.94
2022-09-29T10:57:25.577Z,100127.91
2022-09-29T11:02:29.179Z,100134.50
2022-09-29T11:07:32.778Z,100131.19
2022-09-29T11:12:39.043Z,100132.66
2022-09-29T11:17:48.823Z,100126.50
2022-09-29T11:23:09.103Z,100128.81
2022-09-29T11:28:31.714Z,100125.00
2022-09-29T11:33:48.300Z,100123.38
2022-09-29T11:39:10.065Z,100117.44
2022-09-29T11:44:26.708Z,100133.22
2022-09-29T11:49:34.297Z,100129.38
2022-09-29T11:54:57.673Z,100132.41
2022-09-29T12:00:08.614Z,100134.50
2022-09-29T12:05:15.081Z,100136.69
2022-09-29T12:10:26.559Z,100128.75
2022-09-29T12:15:40.138Z,100133.41
2022-09-29T12:20:43.923Z,100133.94
2022-09-29T12:25:50.947Z,100143.03
2022-09-29T12:31:07.240Z,100139.56
2022-09-29T12:36:31.673Z,100140.56
2022-09-29T12:41:37.293Z,100133.66
2022-09-29T12:46:42.653Z,100144.47
2022-09-29T12:51:55.868Z,100149.41
2022-09-29T12:57:14.168Z,100143.19
2022-09-29T13:02:42.106Z,100144.69
2022-09-29T13:08:05.020Z,100143.03
2022-09-29T13:13:21.633Z,100143.41
2022-09-29T13:18:49.086Z,100147.66
2022-09-29T13:24:22.407Z,100148.22
2022-09-29T13:29:25.693Z,100163.56
2022-09-29T13:34:37.963Z,100162.44
2022-09-29T13:39:41.892Z,100157.16
2022-09-29T13:44:43.450Z,100163.31
2022-09-29T13:49:44.834Z,100169.16
2022-09-29T13:54:46.619Z,100171.53
2022-09-29T14:00:04.739Z,100175.25
2022-09-29T14:05:06.858Z,100169.06
2022-09-29T14:10:28.050Z,100175.34
2022-09-29T14:15:34.199Z,100180.19
2022-09-29T14:20:35.678Z,100178.03
2022-09-29T14:25:40.075Z,100174.72
2022-09-29T14:30:50.040Z,100176.25
2022-09-29T14:36:00.739Z,100188.41
2022-09-29T14:41:07.382Z,100186.00
2022-09-29T14:46:48.890Z,100201.59
2022-09-29T14:52:03.245Z,100207.72
2022-09-29T14:57:04.704Z,100200.84
2022-09-29T15:02:17.936Z,100207.88
2022-09-29T15:07:21.568Z,100214.31
2022-09-29T15:12:26.303Z,100215.16
2022-09-29T15:17:34.831Z,100223.06
2022-09-29T15:22:52.881Z,100237.81
2022-09-29T15:27:54.781Z,100237.91
2022-09-29T15:33:06.938Z,100251.06
2022-09-29T15:38:28.880Z,100254.63
2022-09-29T15:43:39.847Z,100265.03
2022-09-29T15:48:47.159Z,100268.47
2022-09-29T15:53:48.797Z,100283.31
2022-09-29T15:58:50.175Z,100290.31
2022-09-29T16:03:57.534Z,100286.88
2022-09-29T16:09:08.219Z,100304.25
2022-09-29T16:14:11.971Z,100312.88
2022-09-29T16:19:20.627Z,100325.00
2022-09-29T16:24:23.742Z,100324.13
2022-09-29T16:29:27.871Z,100330.97
2022-09-29T16:34:34.383Z,100340.44
2022-09-29T16:39:43.276Z,100349.06
2022-09-29T16:44:44.838Z,100361.13
2022-09-29T16:49:52.907Z,100368.84
2022-09-29T16:55:07.513Z,100374.84
2022-09-29T17:00:12.581Z,100383.28
2022-09-29T17:05:13.913Z,100390.88
2022-09-29T17:10:17.804Z,100398.69
2022-09-29T17:15:19.840Z,100395.09
2022-09-29T17:20:31.610Z,100399.28
2022-09-29T17:25:33.753Z,100400.66
2022-09-29T17:30:35.260Z,100414.28
2022-09-29T17:35:37.348Z,100418.47
2022-09-29T17:40:57.684Z,100420.94
2022-09-29T17:46:00.006Z,100420.72
2022-09-29T17:51:03.988Z,100425.69
2022-09-29T17:56:05.876Z,100432.19
2022-09-29T18:01:09.110Z,100434.75
2022-09-29T18:06:16.126Z,100430.28
2022-09-29T18:11:18.644Z,100436.81
2022-09-29T18:16:21.350Z,100447.81
2022-09-29T18:21:23.689Z,100456.97
2022-09-29T18:26:25.266Z,100464.38
2022-09-29T18:31:28.379Z,100466.06
2022-09-29T18:36:30.193Z,100466.59
2022-09-29T18:41:31.608Z,100466.31
2022-09-29T18:46:33.567Z,100472.06
2022-09-29T18:51:35.119Z,100474.38
2022-09-29T18:56:37.724Z,100488.69
2022-09-29T19:01:39.973Z,100485.31
2022-09-29T19:06:41.394Z,100497.06
2022-09-29T19:11:44.014Z,100495.97
2022-09-29T19:16:45.637Z,100508.56
2022-09-29T19:21:47.065Z,100518.09
2022-09-29T19:26:48.447Z,100513.59
2022-09-29T19:31:49.864Z,100523.72
2022-09-29T19:36:51.243Z,100531.97
2022-09-29T19:41:52.615Z,100530.03
2022-09-29T19:46:54.253Z,100537.47
2022-09-29T19:51:58.623Z,100555.91
2022-09-29T19:57:01.686Z,100553.34
2022-09-29T20:02:04.962Z,100560.75
2022-09-29T20:07:06.834Z,100575.28
2022-09-29T20:12:08.208Z,100579.41
2022-09-29T20:17:09.628Z,100581.66
2022-09-29T20:22:10.972Z,100588.22
2022-09-29T20:27:12.543Z,100584.06
2022-09-29T20:32:14.729Z,100587.00
2022-09-29T20:37:18.988Z,100582.75
2022-09-29T20:42:20.938Z,100590.13
2022-09-29T20:47:25.409Z,100607.06
2022-09-29T20:52:26.768Z,100611.53
2022-09-29T20:57:28.075Z,100616.53
2022-09-29T21:02:30.281Z,100622.59
2022-09-29T21:07:38.341Z,100626.66
2022-09-29T21:12:39.748Z,100630.78
2022-09-29T21:17:41.085Z,100637.44
2022-09-29T21:22:42.440Z,100639.09
2022-09-29T21:27:43.778Z,100645.22
2022-09-29T21:32:45.126Z,100646.06
2022-09-29T21:37:46.480Z,100652.06
2022-09-29T21:42:47.825Z,100653.47
2022-09-29T21:48:07.812Z,100662.78
2022-09-29T21:53:09.914Z,100663.16
2022-09-29T21:58:11.248Z,100667.53
2022-09-29T22:03:12.591Z,100667.09
2022-09-29T22:08:13.955Z,100660.50
2022-09-29T22:13:15.312Z,100662.75
2022-09-29T22:18:16.644Z,100659.34
2022-09-29T22:23:17.988Z,100658.28
2022-09-29T22:28:19.318Z,100658.84
2022-09-29T22:33:21.038Z,100664.50
2022-09-29T22:38:22.533Z,100661.75
2022-09-29T22:43:23.888Z,100675.34
2022-09-29T22:48:25.198Z,100671.56
2022-09-29T22:53:26.559Z,100672.16
2022-09-29T22:58:28.014Z,100676.56
2022-09-29T23:03:29.893Z,100677.94
2022-09-29T23:08:32.276Z,100675.38
2022-09-29T23:13:36.694Z,100682.06
2022-09-29T23:18:43.402Z,100682.28
2022-09-29T23:23:45.267Z,100690.09
2022-09-29T23:28:46.677Z,100690.94
2022-09-29T23:33:55.779Z,100696.13
2022-09-29T23:39:09.675Z,100693.94
2022-09-29T23:44:12.264Z,100687.53
2022-09-29T23:49:15.148Z,100690.59
2022-09-29T23:54:18.166Z,100692.13
2022-09-29T23:59:19.922Z,100681.72
